Česky Dansk Deutsch English Español Suomi Français Magyar Italiano Nederlands norsk Polski Português svenska Türkçe

 

Het Weer

Tuxtla Gutierrez, Chis. (Mexico)

00:44, 23 august 2016 (GMT)

NWNNE
WE
SWSSE
Home            
Tuxtla Gutierrez, Chis. Villahermosa Ixtepec Ox Minatitlan Tapachula Huehuetenango Ciudad Del Carmen Quezaltenango Retalhuleu Coban Flores Tikal Bahias De Huatulco Guatemala Aeropuertola Aurora Oaxaca / Xoxocotlan San Jose Veracruz / Las Bajadas / General Heriberto Jara Zacapa Puerto Escondido Campeche, Camp. Santa Ana / El Palmar Puerto Barrios Acajutla

Om een weerknop op uw website of weblog te plaatsen, copieer onderstaande code en plak die in uw pagina. In het eerste vakje staat HTML-code, in het tweede vakje UBB-code.


Add to Google

Details

Sigtbarheden: 16093 m, 16.1 km, 52800 ft, 10.0 miles
Clouds:Brudte at 30000 ft, 9144 m
Temperaturen:24°C, 75°F
Gefühlte Temperatur:24°C, 75°F
Dugpunkt:21°C, 70°F
Lufttrykket:1015 hPa, 761.5 mmHg, 29.98 inHg, 1.002 atm
Relative luftfugtigheden:83.3 %
METAR:MMTG 230044Z 00000KT 10SM BKN300 24/21 A2998 RMK 8/008 ISOLD AC

Snelkoppelingen

Actuele weersinformatie van de hele wereld. Voeg locaties toe met het plus (+) symbool. Deze snelkoppelingen kunnen worden toegevoegd aan Google.

Lid van de Technetium groep

website free tracking
StatCounter NetStat W3C Validator

28-09-2022 08:37:07
astro.technetium.be money.technetium.be phote.technetium.be tafeltennistafel.technetium.be www.ligfiets.net